sensor_id;sensor_type;location;lat;lon;timestamp;P1;durP1;ratioP1;P2;durP2;ratioP2
64188;SDS011;50493;50.970;10.082;2022-07-29T00:02:13;4.10;;;2.00;;
64188;SDS011;50493;50.970;10.082;2022-07-29T00:04:40;3.58;;;1.75;;
64188;SDS011;50493;50.970;10.082;2022-07-29T00:07:05;2.97;;;1.58;;
64188;SDS011;50493;50.970;10.082;2022-07-29T00:09:30;4.53;;;2.08;;
64188;SDS011;50493;50.970;10.082;2022-07-29T00:11:57;3.63;;;1.67;;
64188;SDS011;50493;50.970;10.082;2022-07-29T00:14:24;4.05;;;2.10;;
64188;SDS011;50493;50.970;10.082;2022-07-29T00:16:50;4.28;;;2.08;;
64188;SDS011;50493;50.970;10.082;2022-07-29T00:19:15;3.92;;;1.95;;
64188;SDS011;50493;50.970;10.082;2022-07-29T00:21:42;4.47;;;1.90;;
64188;SDS011;50493;50.970;10.082;2022-07-29T00:24:07;3.90;;;2.00;;
64188;SDS011;50493;50.970;10.082;2022-07-29T00:26:33;4.05;;;2.22;;
64188;SDS011;50493;50.970;10.082;2022-07-29T00:28:58;3.13;;;1.90;;
64188;SDS011;50493;50.970;10.082;2022-07-29T00:31:24;3.38;;;1.80;;
64188;SDS011;50493;50.970;10.082;2022-07-29T00:33:49;4.85;;;1.80;;
64188;SDS011;50493;50.970;10.082;2022-07-29T00:36:15;5.07;;;1.95;;
64188;SDS011;50493;50.970;10.082;2022-07-29T00:38:41;3.17;;;1.77;;
64188;SDS011;50493;50.970;10.082;2022-07-29T00:41:10;3.78;;;2.00;;
64188;SDS011;50493;50.970;10.082;2022-07-29T00:43:35;3.00;;;1.70;;
64188;SDS011;50493;50.970;10.082;2022-07-29T00:46:00;3.10;;;1.67;;
64188;SDS011;50493;50.970;10.082;2022-07-29T00:48:26;3.03;;;1.70;;
64188;SDS011;50493;50.970;10.082;2022-07-29T00:50:51;3.42;;;1.70;;
64188;SDS011;50493;50.970;10.082;2022-07-29T00:53:17;3.28;;;1.83;;
64188;SDS011;50493;50.970;10.082;2022-07-29T00:55:46;2.75;;;1.90;;
64188;SDS011;50493;50.970;10.082;2022-07-29T00:58:12;2.58;;;1.75;;
64188;SDS011;50493;50.970;10.082;2022-07-29T01:00:38;3.83;;;1.75;;
64188;SDS011;50493;50.970;10.082;2022-07-29T01:03:05;3.83;;;1.80;;
64188;SDS011;50493;50.970;10.082;2022-07-29T01:05:31;3.67;;;1.80;;
64188;SDS011;50493;50.970;10.082;2022-07-29T01:07:56;4.05;;;1.80;;
64188;SDS011;50493;50.970;10.082;2022-07-29T01:10:23;2.80;;;1.73;;
64188;SDS011;50493;50.970;10.082;2022-07-29T01:12:51;3.13;;;1.70;;
64188;SDS011;50493;50.970;10.082;2022-07-29T01:15:19;2.25;;;1.70;;
64188;SDS011;50493;50.970;10.082;2022-07-29T01:17:46;4.38;;;1.83;;
64188;SDS011;50493;50.970;10.082;2022-07-29T01:20:17;5.60;;;1.90;;
64188;SDS011;50493;50.970;10.082;2022-07-29T01:22:54;6.55;;;1.80;;
64188;SDS011;50493;50.970;10.082;2022-07-29T01:25:38;6.25;;;1.77;;
64188;SDS011;50493;50.970;10.082;2022-07-29T01:28:17;4.20;;;2.05;;
64188;SDS011;50493;50.970;10.082;2022-07-29T01:30:59;3.67;;;1.75;;
64188;SDS011;50493;50.970;10.082;2022-07-29T01:33:27;3.58;;;1.70;;
64188;SDS011;50493;50.970;10.082;2022-07-29T01:36:14;3.70;;;1.77;;
64188;SDS011;50493;50.970;10.082;2022-07-29T01:41:31;3.30;;;1.70;;
64188;SDS011;50493;50.970;10.082;2022-07-29T01:44:02;9.40;;;2.20;;
64188;SDS011;50493;50.970;10.082;2022-07-29T01:46:38;4.60;;;1.88;;
64188;SDS011;50493;50.970;10.082;2022-07-29T01:49:08;4.35;;;1.70;;
64188;SDS011;50493;50.970;10.082;2022-07-29T01:51:38;2.78;;;1.73;;
64188;SDS011;50493;50.970;10.082;2022-07-29T01:54:10;4.78;;;2.15;;
64188;SDS011;50493;50.970;10.082;2022-07-29T01:56:39;7.65;;;1.90;;
64188;SDS011;50493;50.970;10.082;2022-07-29T01:59:08;4.45;;;1.80;;
64188;SDS011;50493;50.970;10.082;2022-07-29T02:01:36;2.38;;;1.50;;
64188;SDS011;50493;50.970;10.082;2022-07-29T02:04:04;2.67;;;1.67;;
64188;SDS011;50493;50.970;10.082;2022-07-29T02:06:32;3.88;;;1.67;;
64188;SDS011;50493;50.970;10.082;2022-07-29T02:08:59;3.35;;;2.15;;
64188;SDS011;50493;50.970;10.082;2022-07-29T02:11:27;3.55;;;1.73;;
64188;SDS011;50493;50.970;10.082;2022-07-29T02:13:54;2.58;;;1.60;;
64188;SDS011;50493;50.970;10.082;2022-07-29T02:16:24;4.22;;;1.90;;
64188;SDS011;50493;50.970;10.082;2022-07-29T02:18:53;5.75;;;1.80;;
64188;SDS011;50493;50.970;10.082;2022-07-29T02:21:22;3.05;;;1.55;;
64188;SDS011;50493;50.970;10.082;2022-07-29T02:23:49;2.55;;;1.67;;
64188;SDS011;50493;50.970;10.082;2022-07-29T02:26:18;2.40;;;1.60;;
64188;SDS011;50493;50.970;10.082;2022-07-29T02:28:45;3.60;;;1.90;;
64188;SDS011;50493;50.970;10.082;2022-07-29T02:31:12;3.55;;;1.60;;
64188;SDS011;50493;50.970;10.082;2022-07-29T02:33:40;4.35;;;1.73;;
64188;SDS011;50493;50.970;10.082;2022-07-29T02:36:05;5.20;;;1.80;;
64188;SDS011;50493;50.970;10.082;2022-07-29T02:38:32;4.85;;;1.85;;
64188;SDS011;50493;50.970;10.082;2022-07-29T02:41:16;3.85;;;1.70;;
64188;SDS011;50493;50.970;10.082;2022-07-29T02:43:45;3.33;;;1.60;;
64188;SDS011;50493;50.970;10.082;2022-07-29T02:46:14;4.97;;;1.73;;
64188;SDS011;50493;50.970;10.082;2022-07-29T02:48:47;3.90;;;1.50;;
64188;SDS011;50493;50.970;10.082;2022-07-29T02:51:17;3.75;;;1.65;;
64188;SDS011;50493;50.970;10.082;2022-07-29T02:53:48;3.00;;;1.80;;
64188;SDS011;50493;50.970;10.082;2022-07-29T02:56:18;2.70;;;1.60;;
64188;SDS011;50493;50.970;10.082;2022-07-29T02:58:52;2.83;;;1.80;;
64188;SDS011;50493;50.970;10.082;2022-07-29T03:01:19;3.45;;;1.58;;
64188;SDS011;50493;50.970;10.082;2022-07-29T03:03:48;4.93;;;1.92;;
64188;SDS011;50493;50.970;10.082;2022-07-29T03:06:16;3.72;;;1.50;;
64188;SDS011;50493;50.970;10.082;2022-07-29T03:08:42;3.05;;;1.70;;
64188;SDS011;50493;50.970;10.082;2022-07-29T03:11:09;3.58;;;1.70;;
64188;SDS011;50493;50.970;10.082;2022-07-29T03:13:36;3.13;;;1.50;;
64188;SDS011;50493;50.970;10.082;2022-07-29T03:16:02;2.22;;;1.50;;
64188;SDS011;50493;50.970;10.082;2022-07-29T03:18:29;3.42;;;1.90;;
64188;SDS011;50493;50.970;10.082;2022-07-29T03:20:57;3.42;;;1.70;;
64188;SDS011;50493;50.970;10.082;2022-07-29T03:23:23;3.55;;;1.65;;
64188;SDS011;50493;50.970;10.082;2022-07-29T03:25:48;4.15;;;1.65;;
64188;SDS011;50493;50.970;10.082;2022-07-29T03:28:14;3.22;;;1.60;;
64188;SDS011;50493;50.970;10.082;2022-07-29T03:30:40;3.03;;;1.70;;
64188;SDS011;50493;50.970;10.082;2022-07-29T03:33:05;2.95;;;1.75;;
64188;SDS011;50493;50.970;10.082;2022-07-29T03:35:31;4.38;;;1.80;;
64188;SDS011;50493;50.970;10.082;2022-07-29T03:37:57;3.88;;;2.20;;
64188;SDS011;50493;50.970;10.082;2022-07-29T03:40:24;5.28;;;1.75;;
64188;SDS011;50493;50.970;10.082;2022-07-29T03:42:52;3.90;;;1.90;;
64188;SDS011;50493;50.970;10.082;2022-07-29T03:45:20;3.55;;;1.63;;
64188;SDS011;50493;50.970;10.082;2022-07-29T03:47:47;5.18;;;2.03;;
64188;SDS011;50493;50.970;10.082;2022-07-29T03:50:15;3.13;;;1.77;;
64188;SDS011;50493;50.970;10.082;2022-07-29T03:52:44;3.78;;;2.00;;
64188;SDS011;50493;50.970;10.082;2022-07-29T03:55:11;3.08;;;1.48;;
64188;SDS011;50493;50.970;10.082;2022-07-29T03:57:38;4.15;;;1.60;;
64188;SDS011;50493;50.970;10.082;2022-07-29T04:00:05;3.15;;;1.45;;
64188;SDS011;50493;50.970;10.082;2022-07-29T04:02:32;2.95;;;1.70;;
64188;SDS011;50493;50.970;10.082;2022-07-29T04:04:57;3.47;;;1.65;;
64188;SDS011;50493;50.970;10.082;2022-07-29T04:07:23;4.95;;;2.17;;
64188;SDS011;50493;50.970;10.082;2022-07-29T04:09:48;2.75;;;1.70;;
64188;SDS011;50493;50.970;10.082;2022-07-29T04:12:15;4.07;;;1.60;;
64188;SDS011;50493;50.970;10.082;2022-07-29T04:14:40;3.72;;;1.58;;
64188;SDS011;50493;50.970;10.082;2022-07-29T04:17:05;2.78;;;1.75;;
64188;SDS011;50493;50.970;10.082;2022-07-29T04:19:31;2.63;;;1.50;;
64188;SDS011;50493;50.970;10.082;2022-07-29T04:21:57;2.60;;;1.70;;
64188;SDS011;50493;50.970;10.082;2022-07-29T04:24:23;3.65;;;1.77;;
64188;SDS011;50493;50.970;10.082;2022-07-29T04:26:49;2.80;;;1.73;;
64188;SDS011;50493;50.970;10.082;2022-07-29T04:29:16;2.97;;;1.70;;
64188;SDS011;50493;50.970;10.082;2022-07-29T04:31:41;5.32;;;1.90;;
64188;SDS011;50493;50.970;10.082;2022-07-29T04:34:07;3.70;;;1.60;;
64188;SDS011;50493;50.970;10.082;2022-07-29T04:36:33;5.45;;;1.80;;
64188;SDS011;50493;50.970;10.082;2022-07-29T04:38:59;4.03;;;1.90;;
64188;SDS011;50493;50.970;10.082;2022-07-29T04:41:25;2.83;;;1.88;;
64188;SDS011;50493;50.970;10.082;2022-07-29T04:43:52;2.80;;;1.80;;
64188;SDS011;50493;50.970;10.082;2022-07-29T04:46:19;3.67;;;1.60;;
64188;SDS011;50493;50.970;10.082;2022-07-29T04:48:45;3.50;;;1.67;;
64188;SDS011;50493;50.970;10.082;2022-07-29T04:51:11;2.90;;;1.73;;
64188;SDS011;50493;50.970;10.082;2022-07-29T04:53:36;3.47;;;1.80;;
64188;SDS011;50493;50.970;10.082;2022-07-29T04:56:01;3.47;;;1.80;;
64188;SDS011;50493;50.970;10.082;2022-07-29T04:58:27;3.55;;;1.83;;
64188;SDS011;50493;50.970;10.082;2022-07-29T05:00:52;3.58;;;1.70;;
64188;SDS011;50493;50.970;10.082;2022-07-29T05:03:19;2.38;;;1.50;;
64188;SDS011;50493;50.970;10.082;2022-07-29T05:05:44;3.90;;;1.65;;
64188;SDS011;50493;50.970;10.082;2022-07-29T05:08:10;3.95;;;1.50;;
64188;SDS011;50493;50.970;10.082;2022-07-29T05:10:35;4.68;;;1.70;;
64188;SDS011;50493;50.970;10.082;2022-07-29T05:13:03;7.82;;;2.53;;
64188;SDS011;50493;50.970;10.082;2022-07-29T05:15:29;5.57;;;2.00;;
64188;SDS011;50493;50.970;10.082;2022-07-29T05:17:54;5.97;;;2.05;;
64188;SDS011;50493;50.970;10.082;2022-07-29T05:20:21;3.90;;;1.83;;
64188;SDS011;50493;50.970;10.082;2022-07-29T05:22:51;5.70;;;3.10;;
64188;SDS011;50493;50.970;10.082;2022-07-29T05:25:16;5.18;;;1.90;;
64188;SDS011;50493;50.970;10.082;2022-07-29T05:27:41;8.60;;;2.50;;
64188;SDS011;50493;50.970;10.082;2022-07-29T05:30:07;3.22;;;1.80;;
64188;SDS011;50493;50.970;10.082;2022-07-29T05:32:33;4.35;;;2.00;;
64188;SDS011;50493;50.970;10.082;2022-07-29T05:34:59;3.85;;;1.80;;
64188;SDS011;50493;50.970;10.082;2022-07-29T05:37:25;3.03;;;1.88;;
64188;SDS011;50493;50.970;10.082;2022-07-29T05:39:51;3.85;;;1.80;;
64188;SDS011;50493;50.970;10.082;2022-07-29T05:42:16;4.35;;;1.73;;
64188;SDS011;50493;50.970;10.082;2022-07-29T05:44:41;6.07;;;2.10;;
64188;SDS011;50493;50.970;10.082;2022-07-29T05:47:07;4.28;;;2.20;;
64188;SDS011;50493;50.970;10.082;2022-07-29T05:49:32;5.28;;;1.80;;
64188;SDS011;50493;50.970;10.082;2022-07-29T05:51:58;3.67;;;1.90;;
64188;SDS011;50493;50.970;10.082;2022-07-29T05:54:24;3.28;;;1.90;;
64188;SDS011;50493;50.970;10.082;2022-07-29T05:56:50;5.85;;;2.10;;
64188;SDS011;50493;50.970;10.082;2022-07-29T05:59:16;5.60;;;2.00;;
64188;SDS011;50493;50.970;10.082;2022-07-29T06:01:41;5.90;;;2.45;;
64188;SDS011;50493;50.970;10.082;2022-07-29T06:04:06;7.35;;;1.70;;
64188;SDS011;50493;50.970;10.082;2022-07-29T06:06:32;4.43;;;2.15;;
64188;SDS011;50493;50.970;10.082;2022-07-29T06:08:57;4.80;;;1.80;;
64188;SDS011;50493;50.970;10.082;2022-07-29T06:11:24;5.55;;;2.35;;
64188;SDS011;50493;50.970;10.082;2022-07-29T06:13:49;3.80;;;1.98;;
64188;SDS011;50493;50.970;10.082;2022-07-29T06:16:15;4.82;;;1.90;;
64188;SDS011;50493;50.970;10.082;2022-07-29T06:18:40;3.40;;;1.80;;
64188;SDS011;50493;50.970;10.082;2022-07-29T06:21:07;5.00;;;2.10;;
64188;SDS011;50493;50.970;10.082;2022-07-29T06:23:33;8.60;;;2.10;;
64188;SDS011;50493;50.970;10.082;2022-07-29T06:25:59;3.05;;;1.60;;
64188;SDS011;50493;50.970;10.082;2022-07-29T06:28:26;4.55;;;2.00;;
64188;SDS011;50493;50.970;10.082;2022-07-29T06:30:51;4.43;;;1.80;;
64188;SDS011;50493;50.970;10.082;2022-07-29T06:33:17;3.67;;;1.88;;
64188;SDS011;50493;50.970;10.082;2022-07-29T06:35:43;4.07;;;1.80;;
64188;SDS011;50493;50.970;10.082;2022-07-29T06:38:10;3.03;;;1.70;;
64188;SDS011;50493;50.970;10.082;2022-07-29T06:40:36;6.07;;;1.98;;
64188;SDS011;50493;50.970;10.082;2022-07-29T06:43:20;3.30;;;2.00;;
64188;SDS011;50493;50.970;10.082;2022-07-29T06:45:47;6.80;;;1.90;;
64188;SDS011;50493;50.970;10.082;2022-07-29T06:48:12;4.80;;;2.67;;
64188;SDS011;50493;50.970;10.082;2022-07-29T06:50:37;2.83;;;1.80;;
64188;SDS011;50493;50.970;10.082;2022-07-29T06:53:03;5.22;;;2.08;;
64188;SDS011;50493;50.970;10.082;2022-07-29T06:55:28;3.00;;;1.65;;
64188;SDS011;50493;50.970;10.082;2022-07-29T06:57:54;5.47;;;1.80;;
64188;SDS011;50493;50.970;10.082;2022-07-29T07:00:19;3.92;;;1.90;;
64188;SDS011;50493;50.970;10.082;2022-07-29T07:02:46;2.65;;;1.73;;
64188;SDS011;50493;50.970;10.082;2022-07-29T07:05:11;2.65;;;1.70;;
64188;SDS011;50493;50.970;10.082;2022-07-29T07:07:37;4.45;;;1.50;;
64188;SDS011;50493;50.970;10.082;2022-07-29T07:10:02;3.05;;;1.80;;
64188;SDS011;50493;50.970;10.082;2022-07-29T07:12:28;5.65;;;2.17;;
64188;SDS011;50493;50.970;10.082;2022-07-29T07:14:53;2.90;;;1.90;;
64188;SDS011;50493;50.970;10.082;2022-07-29T07:17:19;5.85;;;1.83;;
64188;SDS011;50493;50.970;10.082;2022-07-29T07:19:45;4.15;;;1.88;;
64188;SDS011;50493;50.970;10.082;2022-07-29T07:22:11;10.32;;;2.75;;
64188;SDS011;50493;50.970;10.082;2022-07-29T07:24:36;2.53;;;1.60;;
64188;SDS011;50493;50.970;10.082;2022-07-29T07:27:02;2.75;;;1.60;;
64188;SDS011;50493;50.970;10.082;2022-07-29T07:29:27;5.35;;;1.92;;
64188;SDS011;50493;50.970;10.082;2022-07-29T07:31:53;5.15;;;1.92;;
64188;SDS011;50493;50.970;10.082;2022-07-29T07:34:19;4.20;;;1.75;;
64188;SDS011;50493;50.970;10.082;2022-07-29T07:36:45;5.80;;;2.30;;
64188;SDS011;50493;50.970;10.082;2022-07-29T07:39:11;4.03;;;1.80;;
64188;SDS011;50493;50.970;10.082;2022-07-29T07:41:36;3.85;;;1.60;;
64188;SDS011;50493;50.970;10.082;2022-07-29T07:44:01;4.05;;;1.80;;
64188;SDS011;50493;50.970;10.082;2022-07-29T07:46:27;3.80;;;1.80;;
64188;SDS011;50493;50.970;10.082;2022-07-29T07:48:52;3.03;;;1.63;;
64188;SDS011;50493;50.970;10.082;2022-07-29T07:51:18;2.80;;;1.65;;
64188;SDS011;50493;50.970;10.082;2022-07-29T07:53:44;3.00;;;1.67;;
64188;SDS011;50493;50.970;10.082;2022-07-29T07:56:10;3.45;;;1.98;;
64188;SDS011;50493;50.970;10.082;2022-07-29T07:58:35;3.97;;;1.70;;
64188;SDS011;50493;50.970;10.082;2022-07-29T08:01:01;4.43;;;2.00;;
64188;SDS011;50493;50.970;10.082;2022-07-29T08:03:26;2.75;;;1.88;;
64188;SDS011;50493;50.970;10.082;2022-07-29T08:05:52;4.25;;;1.75;;
64188;SDS011;50493;50.970;10.082;2022-07-29T08:08:19;4.28;;;2.03;;
64188;SDS011;50493;50.970;10.082;2022-07-29T08:10:46;3.50;;;1.83;;
64188;SDS011;50493;50.970;10.082;2022-07-29T08:13:17;4.03;;;1.75;;
64188;SDS011;50493;50.970;10.082;2022-07-29T08:15:44;4.07;;;2.00;;
64188;SDS011;50493;50.970;10.082;2022-07-29T08:18:10;4.63;;;1.88;;
64188;SDS011;50493;50.970;10.082;2022-07-29T08:20:36;3.17;;;1.75;;
64188;SDS011;50493;50.970;10.082;2022-07-29T08:23:03;4.03;;;1.90;;
64188;SDS011;50493;50.970;10.082;2022-07-29T08:25:30;3.00;;;1.90;;
64188;SDS011;50493;50.970;10.082;2022-07-29T08:27:57;4.90;;;1.98;;
64188;SDS011;50493;50.970;10.082;2022-07-29T08:30:23;3.75;;;1.92;;
64188;SDS011;50493;50.970;10.082;2022-07-29T08:32:48;5.88;;;2.08;;
64188;SDS011;50493;50.970;10.082;2022-07-29T08:35:15;8.15;;;2.30;;
64188;SDS011;50493;50.970;10.082;2022-07-29T08:37:41;6.10;;;2.10;;
64188;SDS011;50493;50.970;10.082;2022-07-29T08:40:07;6.10;;;2.20;;
64188;SDS011;50493;50.970;10.082;2022-07-29T08:42:32;4.00;;;1.85;;
64188;SDS011;50493;50.970;10.082;2022-07-29T08:44:59;3.38;;;2.00;;
64188;SDS011;50493;50.970;10.082;2022-07-29T08:47:25;3.97;;;2.28;;
64188;SDS011;50493;50.970;10.082;2022-07-29T08:49:52;3.85;;;2.08;;
64188;SDS011;50493;50.970;10.082;2022-07-29T08:52:17;3.72;;;1.88;;
64188;SDS011;50493;50.970;10.082;2022-07-29T08:54:44;3.80;;;2.20;;
64188;SDS011;50493;50.970;10.082;2022-07-29T08:57:12;3.08;;;2.08;;
64188;SDS011;50493;50.970;10.082;2022-07-29T08:59:38;3.30;;;1.90;;
64188;SDS011;50493;50.970;10.082;2022-07-29T09:02:09;4.22;;;1.70;;
64188;SDS011;50493;50.970;10.082;2022-07-29T09:04:40;5.03;;;2.45;;
64188;SDS011;50493;50.970;10.082;2022-07-29T09:07:06;7.38;;;2.30;;
64188;SDS011;50493;50.970;10.082;2022-07-29T09:09:32;2.83;;;1.83;;
64188;SDS011;50493;50.970;10.082;2022-07-29T09:11:58;2.97;;;2.08;;
64188;SDS011;50493;50.970;10.082;2022-07-29T09:14:24;6.72;;;2.30;;
64188;SDS011;50493;50.970;10.082;2022-07-29T09:16:50;5.63;;;2.28;;
64188;SDS011;50493;50.970;10.082;2022-07-29T09:19:26;5.78;;;2.28;;
64188;SDS011;50493;50.970;10.082;2022-07-29T09:21:53;5.88;;;2.28;;
64188;SDS011;50493;50.970;10.082;2022-07-29T09:24:23;4.90;;;2.10;;
64188;SDS011;50493;50.970;10.082;2022-07-29T09:26:48;3.03;;;1.83;;
64188;SDS011;50493;50.970;10.082;2022-07-29T09:29:15;4.22;;;2.13;;
64188;SDS011;50493;50.970;10.082;2022-07-29T09:31:41;6.28;;;2.17;;
64188;SDS011;50493;50.970;10.082;2022-07-29T09:34:09;4.93;;;2.33;;
64188;SDS011;50493;50.970;10.082;2022-07-29T09:36:41;4.43;;;2.20;;
64188;SDS011;50493;50.970;10.082;2022-07-29T09:39:08;6.68;;;2.25;;
64188;SDS011;50493;50.970;10.082;2022-07-29T09:41:46;4.03;;;2.10;;
64188;SDS011;50493;50.970;10.082;2022-07-29T09:44:12;6.28;;;2.05;;
64188;SDS011;50493;50.970;10.082;2022-07-29T09:46:39;5.28;;;2.10;;
64188;SDS011;50493;50.970;10.082;2022-07-29T09:49:06;8.85;;;2.28;;
64188;SDS011;50493;50.970;10.082;2022-07-29T09:51:33;3.08;;;2.00;;
64188;SDS011;50493;50.970;10.082;2022-07-29T09:54:00;4.07;;;2.20;;
64188;SDS011;50493;50.970;10.082;2022-07-29T09:56:38;4.50;;;2.42;;
64188;SDS011;50493;50.970;10.082;2022-07-29T09:59:04;7.40;;;2.28;;
64188;SDS011;50493;50.970;10.082;2022-07-29T10:01:30;6.32;;;2.38;;
64188;SDS011;50493;50.970;10.082;2022-07-29T10:03:55;2.75;;;1.90;;
64188;SDS011;50493;50.970;10.082;2022-07-29T10:06:21;6.90;;;2.30;;
64188;SDS011;50493;50.970;10.082;2022-07-29T10:08:46;5.03;;;2.63;;
64188;SDS011;50493;50.970;10.082;2022-07-29T10:11:13;5.53;;;2.33;;
64188;SDS011;50493;50.970;10.082;2022-07-29T10:13:41;7.80;;;2.40;;
64188;SDS011;50493;50.970;10.082;2022-07-29T10:16:09;6.75;;;2.40;;
64188;SDS011;50493;50.970;10.082;2022-07-29T10:18:35;5.28;;;2.30;;
64188;SDS011;50493;50.970;10.082;2022-07-29T10:21:03;3.30;;;2.25;;
64188;SDS011;50493;50.970;10.082;2022-07-29T10:23:29;2.97;;;2.10;;
64188;SDS011;50493;50.970;10.082;2022-07-29T10:25:54;4.65;;;2.08;;
64188;SDS011;50493;50.970;10.082;2022-07-29T10:28:22;4.68;;;2.30;;
64188;SDS011;50493;50.970;10.082;2022-07-29T10:30:48;3.95;;;2.25;;
64188;SDS011;50493;50.970;10.082;2022-07-29T10:33:27;5.30;;;2.28;;
64188;SDS011;50493;50.970;10.082;2022-07-29T10:36:15;5.75;;;2.40;;
64188;SDS011;50493;50.970;10.082;2022-07-29T10:38:53;6.00;;;2.38;;
64188;SDS011;50493;50.970;10.082;2022-07-29T10:41:33;3.13;;;2.35;;
64188;SDS011;50493;50.970;10.082;2022-07-29T10:44:14;5.13;;;2.63;;
64188;SDS011;50493;50.970;10.082;2022-07-29T10:46:42;2.83;;;1.90;;
64188;SDS011;50493;50.970;10.082;2022-07-29T10:49:08;3.88;;;2.50;;
64188;SDS011;50493;50.970;10.082;2022-07-29T10:57:20;10.35;;;2.63;;
64188;SDS011;50493;50.970;10.082;2022-07-29T11:00:25;3.45;;;2.08;;
64188;SDS011;50493;50.970;10.082;2022-07-29T11:02:54;3.60;;;2.28;;
64188;SDS011;50493;50.970;10.082;2022-07-29T11:05:21;4.82;;;2.60;;
64188;SDS011;50493;50.970;10.082;2022-07-29T11:10:48;3.78;;;2.30;;
64188;SDS011;50493;50.970;10.082;2022-07-29T11:16:12;4.57;;;2.35;;
64188;SDS011;50493;50.970;10.082;2022-07-29T11:21:38;4.70;;;2.30;;
64188;SDS011;50493;50.970;10.082;2022-07-29T11:24:11;4.78;;;2.42;;
64188;SDS011;50493;50.970;10.082;2022-07-29T11:26:37;4.53;;;2.33;;
64188;SDS011;50493;50.970;10.082;2022-07-29T11:29:04;6.38;;;2.45;;
64188;SDS011;50493;50.970;10.082;2022-07-29T11:31:42;4.82;;;2.40;;
64188;SDS011;50493;50.970;10.082;2022-07-29T11:34:15;7.60;;;2.67;;
64188;SDS011;50493;50.970;10.082;2022-07-29T11:39:42;5.32;;;2.65;;
64188;SDS011;50493;50.970;10.082;2022-07-29T11:45:18;4.65;;;2.63;;
64188;SDS011;50493;50.970;10.082;2022-07-29T11:47:48;12.63;;;3.42;;
64188;SDS011;50493;50.970;10.082;2022-07-29T11:50:18;5.03;;;2.70;;
64188;SDS011;50493;50.970;10.082;2022-07-29T11:52:52;5.95;;;2.40;;
64188;SDS011;50493;50.970;10.082;2022-07-29T11:55:19;3.92;;;2.20;;
64188;SDS011;50493;50.970;10.082;2022-07-29T11:57:48;7.15;;;2.40;;
64188;SDS011;50493;50.970;10.082;2022-07-29T12:00:21;4.05;;;2.28;;
64188;SDS011;50493;50.970;10.082;2022-07-29T12:02:54;4.57;;;2.30;;
64188;SDS011;50493;50.970;10.082;2022-07-29T12:05:20;5.32;;;2.30;;
64188;SDS011;50493;50.970;10.082;2022-07-29T12:07:46;5.65;;;3.05;;
64188;SDS011;50493;50.970;10.082;2022-07-29T12:10:12;6.07;;;2.80;;
64188;SDS011;50493;50.970;10.082;2022-07-29T12:12:37;5.70;;;2.67;;
64188;SDS011;50493;50.970;10.082;2022-07-29T12:15:14;6.85;;;2.83;;
64188;SDS011;50493;50.970;10.082;2022-07-29T12:17:42;6.30;;;2.70;;
64188;SDS011;50493;50.970;10.082;2022-07-29T12:20:09;5.93;;;2.28;;
64188;SDS011;50493;50.970;10.082;2022-07-29T12:22:36;4.47;;;2.55;;
64188;SDS011;50493;50.970;10.082;2022-07-29T12:25:03;3.58;;;2.17;;
64188;SDS011;50493;50.970;10.082;2022-07-29T12:27:30;3.45;;;2.17;;
64188;SDS011;50493;50.970;10.082;2022-07-29T12:29:56;4.25;;;2.30;;
64188;SDS011;50493;50.970;10.082;2022-07-29T12:32:22;3.42;;;2.20;;
64188;SDS011;50493;50.970;10.082;2022-07-29T12:34:48;2.95;;;2.00;;
64188;SDS011;50493;50.970;10.082;2022-07-29T12:37:15;4.15;;;2.20;;
64188;SDS011;50493;50.970;10.082;2022-07-29T12:39:41;3.65;;;2.20;;
64188;SDS011;50493;50.970;10.082;2022-07-29T12:42:11;3.17;;;2.10;;
64188;SDS011;50493;50.970;10.082;2022-07-29T12:44:43;5.13;;;2.42;;
64188;SDS011;50493;50.970;10.082;2022-07-29T12:47:09;4.25;;;2.28;;
64188;SDS011;50493;50.970;10.082;2022-07-29T12:49:35;3.25;;;2.20;;
64188;SDS011;50493;50.970;10.082;2022-07-29T12:52:00;4.20;;;2.47;;
64188;SDS011;50493;50.970;10.082;2022-07-29T12:54:27;8.05;;;2.72;;
64188;SDS011;50493;50.970;10.082;2022-07-29T12:56:58;3.95;;;2.40;;
64188;SDS011;50493;50.970;10.082;2022-07-29T12:59:24;4.00;;;2.50;;
64188;SDS011;50493;50.970;10.082;2022-07-29T13:01:50;6.55;;;3.10;;
64188;SDS011;50493;50.970;10.082;2022-07-29T13:04:26;4.97;;;2.78;;
64188;SDS011;50493;50.970;10.082;2022-07-29T13:06:59;3.85;;;2.30;;
64188;SDS011;50493;50.970;10.082;2022-07-29T13:09:35;5.60;;;2.78;;
64188;SDS011;50493;50.970;10.082;2022-07-29T13:12:05;7.45;;;2.92;;
64188;SDS011;50493;50.970;10.082;2022-07-29T13:14:33;8.27;;;3.28;;
64188;SDS011;50493;50.970;10.082;2022-07-29T13:17:00;5.22;;;2.50;;
64188;SDS011;50493;50.970;10.082;2022-07-29T13:19:34;3.25;;;2.50;;
64188;SDS011;50493;50.970;10.082;2022-07-29T13:22:01;5.05;;;2.40;;
64188;SDS011;50493;50.970;10.082;2022-07-29T13:24:28;14.48;;;3.47;;
64188;SDS011;50493;50.970;10.082;2022-07-29T13:26:54;8.55;;;3.20;;
64188;SDS011;50493;50.970;10.082;2022-07-29T13:29:19;3.47;;;2.60;;
64188;SDS011;50493;50.970;10.082;2022-07-29T13:31:44;5.70;;;3.50;;
64188;SDS011;50493;50.970;10.082;2022-07-29T13:34:10;7.38;;;3.42;;
64188;SDS011;50493;50.970;10.082;2022-07-29T13:36:35;5.38;;;2.97;;
64188;SDS011;50493;50.970;10.082;2022-07-29T13:39:01;6.72;;;3.00;;
64188;SDS011;50493;50.970;10.082;2022-07-29T13:41:28;6.30;;;3.30;;
64188;SDS011;50493;50.970;10.082;2022-07-29T13:43:54;6.85;;;3.25;;
64188;SDS011;50493;50.970;10.082;2022-07-29T13:46:19;6.07;;;3.20;;
64188;SDS011;50493;50.970;10.082;2022-07-29T13:48:45;6.95;;;3.30;;
64188;SDS011;50493;50.970;10.082;2022-07-29T13:51:10;5.20;;;3.03;;
64188;SDS011;50493;50.970;10.082;2022-07-29T13:53:35;5.80;;;3.03;;
64188;SDS011;50493;50.970;10.082;2022-07-29T13:56:01;6.95;;;3.40;;
64188;SDS011;50493;50.970;10.082;2022-07-29T13:58:28;8.57;;;3.45;;
64188;SDS011;50493;50.970;10.082;2022-07-29T14:00:54;3.60;;;2.60;;
64188;SDS011;50493;50.970;10.082;2022-07-29T14:03:23;6.50;;;3.20;;
64188;SDS011;50493;50.970;10.082;2022-07-29T14:05:49;4.38;;;3.10;;
64188;SDS011;50493;50.970;10.082;2022-07-29T14:08:14;4.43;;;3.05;;
64188;SDS011;50493;50.970;10.082;2022-07-29T14:10:40;5.35;;;3.20;;
64188;SDS011;50493;50.970;10.082;2022-07-29T14:13:05;8.43;;;3.20;;
64188;SDS011;50493;50.970;10.082;2022-07-29T14:15:32;4.53;;;3.10;;
64188;SDS011;50493;50.970;10.082;2022-07-29T14:17:57;7.30;;;3.17;;
64188;SDS011;50493;50.970;10.082;2022-07-29T14:20:23;6.93;;;3.28;;
64188;SDS011;50493;50.970;10.082;2022-07-29T14:22:48;6.80;;;3.40;;
64188;SDS011;50493;50.970;10.082;2022-07-29T14:25:13;6.53;;;3.17;;
64188;SDS011;50493;50.970;10.082;2022-07-29T14:27:39;8.23;;;3.30;;
64188;SDS011;50493;50.970;10.082;2022-07-29T14:30:05;9.00;;;3.22;;
64188;SDS011;50493;50.970;10.082;2022-07-29T14:32:32;8.95;;;3.50;;
64188;SDS011;50493;50.970;10.082;2022-07-29T14:34:57;6.68;;;3.40;;
64188;SDS011;50493;50.970;10.082;2022-07-29T14:37:23;8.00;;;3.38;;
64188;SDS011;50493;50.970;10.082;2022-07-29T14:39:48;5.72;;;3.58;;
64188;SDS011;50493;50.970;10.082;2022-07-29T14:42:14;6.10;;;3.25;;
64188;SDS011;50493;50.970;10.082;2022-07-29T14:44:39;8.10;;;3.28;;
64188;SDS011;50493;50.970;10.082;2022-07-29T14:47:05;7.45;;;3.28;;
64188;SDS011;50493;50.970;10.082;2022-07-29T14:49:32;4.57;;;3.00;;
64188;SDS011;50493;50.970;10.082;2022-07-29T14:51:57;6.70;;;3.10;;
64188;SDS011;50493;50.970;10.082;2022-07-29T14:54:23;7.65;;;3.00;;
64188;SDS011;50493;50.970;10.082;2022-07-29T14:56:48;5.30;;;3.30;;
64188;SDS011;50493;50.970;10.082;2022-07-29T14:59:15;6.38;;;3.47;;